Etusivu
METAR-TAF:

METAR-TAF

Lentoasemat :

Ringkøbing-Skjern, Tanska

Leveyspiiri: 56-00N, Pituuspiiri: 008-21E, korkeus merenpinnasta: 5 m

Tämänhetkinen sää

Tämä raportti tehtiin 16 tuntia ja 40 minuuttia sitten, kello 14.50 UTC
Tuuli 9 kn lännestä/luoteesta
Lämpötila 3°C
Kosteus 87%
Ilmanpaine 1001 hPa
Näkyvyys 10 km tai enemmän
Muutamia pilviä 2500 ft:n korkeudessa

METAR: EKVJ 121450Z 29009KT 9999 FEW025 03/01 Q1001

Aika: 08:30 (07:30 UTC)

Sääennuste

Tämä raportti tehtiin 19 tuntia ja 34 minuuttia sitten, kello 11.56 UTC
Ennuste voimassa 12. päivästä klo 12 UTC - 12. päivään klo 16 UTC
Tuuli 10 kn luoteesta
Näkyvyys 10 km tai enemmän
Hajanaisia pilviä 2500 ft:n korkeudessa

TAF: EKVJ 121156Z 1212/1216 31010KT 9999 SCT025

Säähavainnot ja -ennusteet yli 4000 lentoasemalta (METAR- ja TAF-raportit).

Käytössä olevat sääasemat on merkitty karttaan keltaisilla ja punaisilla pisteillä.

Aseta hiiri pisteen päälle nähdäksesi sääaseman nimen.

Klikkaa sitten nähdäksesi säähavainnot ja -ennusteet.

Kartan vaihtaminen: klikkaa mustalla rastilla varustettuja vihreitä pisteitä, niin voit zoomata sisään; viivalla varustettua vihreää pistettä, niin voit zoomata ulos tai vihreitä nuolia, niin pääset viereisille kartoille.


METAR-TAF: